createdAt,value
2022-10-06T00:01:48.578Z,99695.59
2022-10-06T00:06:40.258Z,99704.13
2022-10-06T00:11:31.969Z,99709.31
2022-10-06T00:16:24.420Z,99707.66
2022-10-06T00:21:16.889Z,99720.34
2022-10-06T00:26:17.750Z,99714.28
2022-10-06T00:31:09.409Z,99736.56
2022-10-06T00:36:01.170Z,99750.06
2022-10-06T00:40:52.897Z,99746.72
2022-10-06T00:45:48.802Z,99761.91
2022-10-06T00:50:41.257Z,99759.41
2022-10-06T00:55:33.006Z,99762.94
2022-10-06T01:00:25.171Z,99770.84
2022-10-06T01:05:25.782Z,99776.66
2022-10-06T01:10:17.396Z,99777.94
2022-10-06T01:15:10.385Z,99779.97
2022-10-06T01:20:13.043Z,99782.25
2022-10-06T01:25:06.716Z,99791.56
2022-10-06T01:29:59.457Z,99795.72
2022-10-06T01:34:51.052Z,99793.44
2022-10-06T01:39:43.734Z,99785.53
2022-10-06T01:44:35.965Z,99798.38
2022-10-06T01:49:27.684Z,99794.03
2022-10-06T01:54:19.293Z,99796.28
2022-10-06T01:59:10.986Z,99811.28
2022-10-06T02:04:02.615Z,99811.88
2022-10-06T02:08:54.257Z,99803.97
2022-10-06T02:13:46.678Z,99807.06
2022-10-06T02:18:38.498Z,99808.75
2022-10-06T02:23:30.885Z,99819.34
2022-10-06T02:28:22.728Z,99824.75
2022-10-06T02:33:14.376Z,99817.28
2022-10-06T02:38:06.069Z,99830.59
2022-10-06T02:42:58.378Z,99829.09
2022-10-06T02:47:50.073Z,99831.19
2022-10-06T02:52:42.942Z,99841.78
2022-10-06T02:57:34.564Z,99848.03
2022-10-06T03:02:26.302Z,99845.31
2022-10-06T03:07:18.941Z,99846.38
2022-10-06T03:12:10.584Z,99837.63
2022-10-06T03:17:02.288Z,99835.97
2022-10-06T03:21:53.956Z,99830.56
2022-10-06T03:26:47.879Z,99844.69
2022-10-06T03:31:40.327Z,99844.69
2022-10-06T03:36:33.693Z,99850.94
2022-10-06T03:41:28.101Z,99853.22
2022-10-06T03:46:23.383Z,99862.00
2022-10-06T03:51:21.601Z,99857.00
2022-10-06T03:56:17.495Z,99860.34
2022-10-06T04:01:23.488Z,99867.63
2022-10-06T04:06:19.438Z,99868.44
2022-10-06T04:11:21.486Z,99873.84
2022-10-06T04:16:20.431Z,99876.16
2022-10-06T04:21:13.306Z,99891.34
2022-10-06T04:26:11.493Z,99896.75
2022-10-06T04:31:03.029Z,99889.88
2022-10-06T04:36:03.700Z,99890.91
2022-10-06T04:40:57.417Z,99890.91
2022-10-06T04:45:57.784Z,99891.94
2022-10-06T04:50:57.261Z,99890.06
2022-10-06T04:56:13.965Z,99889.03
2022-10-06T05:01:32.950Z,99894.66
2022-10-06T05:06:32.948Z,99898.56
2022-10-06T05:11:26.106Z,99912.75
2022-10-06T05:16:18.585Z,99911.69
2022-10-06T05:21:16.173Z,99931.47
2022-10-06T05:26:08.536Z,99931.66
2022-10-06T05:31:00.152Z,99929.97
2022-10-06T05:35:53.776Z,99938.09
2022-10-06T05:40:45.349Z,99951.22
2022-10-06T05:45:37.196Z,99939.56
2022-10-06T05:50:28.829Z,99947.91
2022-10-06T05:55:20.633Z,99932.13
2022-10-06T06:00:12.678Z,99935.94
2022-10-06T06:05:04.826Z,99934.72
2022-10-06T06:09:56.484Z,99934.31
2022-10-06T06:15:07.161Z,99948.25
2022-10-06T06:19:58.883Z,99943.69
2022-10-06T06:24:50.482Z,99954.75
2022-10-06T06:29:42.250Z,99969.94
2022-10-06T06:34:33.837Z,99969.53
2022-10-06T06:39:25.636Z,99964.38
2022-10-06T06:44:17.814Z,99971.50
2022-10-06T06:49:12.102Z,99986.06
2022-10-06T06:54:05.404Z,99976.13
2022-10-06T06:58:57.085Z,99987.63
2022-10-06T07:03:58.061Z,99992.03
2022-10-06T07:08:50.346Z,100006.41
2022-10-06T07:13:42.679Z,100004.56
2022-10-06T07:18:53.254Z,100009.78
2022-10-06T07:24:05.279Z,100003.38
2022-10-06T07:29:01.061Z,100007.59
2022-10-06T07:33:53.031Z,100013.06
2022-10-06T07:38:44.658Z,100011.06
2022-10-06T07:43:36.322Z,100010.09
2022-10-06T07:48:27.867Z,100019.00
2022-10-06T07:53:19.990Z,100016.63
2022-10-06T07:58:13.923Z,100036.25
2022-10-06T08:03:05.756Z,100033.72
2022-10-06T08:07:58.222Z,100036.47
2022-10-06T08:12:49.890Z,100038.19
2022-10-06T08:17:41.887Z,100040.19
2022-10-06T08:22:33.844Z,100048.09
2022-10-06T08:27:28.888Z,100041.16
2022-10-06T08:32:21.521Z,100041.94
2022-10-06T08:37:20.153Z,100038.66
2022-10-06T08:42:16.927Z,100035.38
2022-10-06T08:47:20.650Z,100045.25
2022-10-06T08:52:27.282Z,100035.25
2022-10-06T08:57:34.160Z,100044.34
2022-10-06T09:02:33.129Z,100051.44
2022-10-06T09:08:02.726Z,100052.22
2022-10-06T09:13:09.549Z,100041.94
2022-10-06T09:18:10.738Z,100054.59
2022-10-06T09:23:06.570Z,100052.28
2022-10-06T09:27:59.955Z,100051.03
2022-10-06T09:33:03.571Z,100053.50
2022-10-06T09:38:08.627Z,100060.59
2022-10-06T09:43:02.269Z,100058.69
2022-10-06T09:47:54.045Z,100055.66
2022-10-06T09:52:57.651Z,100057.41
2022-10-06T09:57:52.336Z,100058.47
2022-10-06T10:02:44.062Z,100054.91
2022-10-06T10:07:36.559Z,100048.81
2022-10-06T10:12:28.357Z,100036.63
2022-10-06T10:17:33.560Z,100045.22
2022-10-06T10:22:36.041Z,100058.75
2022-10-06T10:27:52.264Z,100040.19
2022-10-06T10:32:54.068Z,100008.72
2022-10-06T10:38:04.066Z,100026.59
2022-10-06T10:43:23.759Z,100043.78
2022-10-06T10:48:47.513Z,100042.81
2022-10-06T10:53:49.772Z,100051.34
2022-10-06T10:58:43.740Z,100061.94
2022-10-06T11:03:35.380Z,100053.13
2022-10-06T11:08:38.122Z,100064.38
2022-10-06T11:13:52.779Z,100046.84
2022-10-06T11:19:02.782Z,100048.72
2022-10-06T11:24:03.128Z,100061.16
2022-10-06T11:29:16.257Z,100056.19
2022-10-06T11:34:10.089Z,100065.84
2022-10-06T11:39:15.718Z,100063.31
2022-10-06T11:44:07.363Z,100055.50
2022-10-06T11:49:29.771Z,100043.44
2022-10-06T11:54:47.480Z,100052.44
2022-10-06T11:59:39.217Z,100031.22
2022-10-06T12:04:30.934Z,100031.47
2022-10-06T12:09:46.147Z,100016.44
2022-10-06T12:16:32.283Z,100027.50
2022-10-06T12:20:08.056Z,100028.69
2022-10-06T12:25:26.779Z,100025.03
2022-10-06T12:30:21.274Z,100019.66
2022-10-06T12:35:32.690Z,100039.53
2022-10-06T12:40:48.421Z,100039.03
2022-10-06T12:45:46.394Z,100031.78
2022-10-06T12:50:39.234Z,100025.13
2022-10-06T12:55:47.323Z,100018.44
2022-10-06T13:00:43.513Z,100031.75
2022-10-06T13:05:36.595Z,99998.16
2022-10-06T13:10:29.626Z,100015.25
2022-10-06T13:15:23.886Z,99999.50
2022-10-06T13:21:02.840Z,99999.97
2022-10-06T13:25:58.981Z,99997.09
2022-10-06T13:30:52.476Z,100010.75
2022-10-06T13:35:44.858Z,99987.09
2022-10-06T13:40:45.241Z,99983.16
2022-10-06T13:45:42.497Z,99984.47
2022-10-06T13:50:34.796Z,99995.63
2022-10-06T13:55:29.135Z,99984.06
2022-10-06T14:00:26.656Z,99993.72
2022-10-06T14:05:37.281Z,99964.84
2022-10-06T14:10:55.394Z,99981.22
2022-10-06T14:15:50.482Z,99981.78
2022-10-06T14:20:46.396Z,99985.03
2022-10-06T14:25:38.123Z,99979.03
2022-10-06T14:30:29.803Z,99979.44
2022-10-06T14:35:21.724Z,99976.38
2022-10-06T14:40:13.833Z,99976.19
2022-10-06T14:45:05.867Z,99978.88
2022-10-06T14:49:57.534Z,99973.66
2022-10-06T14:54:49.337Z,99959.59
2022-10-06T14:59:41.116Z,99951.38
2022-10-06T15:04:32.884Z,99949.16
2022-10-06T15:09:24.861Z,99944.31
2022-10-06T15:14:16.964Z,99950.38
2022-10-06T15:19:09.274Z,99934.38
2022-10-06T15:24:03.952Z,99924.50
2022-10-06T15:29:01.872Z,99912.00
2022-10-06T15:33:55.138Z,99926.38
2022-10-06T15:38:47.384Z,99927.47
2022-10-06T15:43:55.302Z,99924.66
2022-10-06T15:48:46.964Z,99916.88
2022-10-06T15:53:38.661Z,99905.09
2022-10-06T15:58:30.577Z,99897.69
2022-10-06T16:03:40.800Z,99891.34
2022-10-06T16:08:34.871Z,99895.91
2022-10-06T16:13:26.487Z,99892.25
2022-10-06T16:18:18.269Z,99887.47
2022-10-06T16:23:10.019Z,99885.75
2022-10-06T16:28:01.735Z,99891.06
2022-10-06T16:32:53.540Z,99880.56
2022-10-06T16:37:49.761Z,99876.09
2022-10-06T16:42:43.396Z,99892.44
2022-10-06T16:47:35.044Z,99889.34
2022-10-06T16:52:26.740Z,99890.94
2022-10-06T16:57:18.505Z,99888.97
2022-10-06T17:02:10.201Z,99887.13
2022-10-06T17:07:02.291Z,99882.63
2022-10-06T17:12:02.130Z,99890.16
2022-10-06T17:16:58.656Z,99892.81
2022-10-06T17:21:57.442Z,99893.19
2022-10-06T17:26:50.351Z,99901.31
2022-10-06T17:31:43.314Z,99896.59
2022-10-06T17:36:38.047Z,99910.16
2022-10-06T17:41:32.718Z,99915.78
2022-10-06T17:46:25.614Z,99911.03
2022-10-06T17:51:19.754Z,99908.22
2022-10-06T17:56:11.972Z,99917.63
2022-10-06T18:01:12.741Z,99918.84
2022-10-06T18:06:05.545Z,99918.03
2022-10-06T18:11:16.699Z,99917.09
2022-10-06T18:16:22.586Z,99919.47
2022-10-06T18:21:15.114Z,99912.25
2022-10-06T18:26:06.779Z,99910.56
2022-10-06T18:30:58.521Z,99917.34
2022-10-06T18:36:14.591Z,99919.50
2022-10-06T18:41:10.200Z,99914.41
2022-10-06T18:46:22.514Z,99908.59
2022-10-06T18:51:14.206Z,99902.78
2022-10-06T18:56:07.266Z,99912.28
2022-10-06T19:01:04.493Z,99904.56
2022-10-06T19:05:56.214Z,99901.25
2022-10-06T19:11:08.091Z,99899.13
2022-10-06T19:16:00.058Z,99912.41
2022-10-06T19:20:51.978Z,99911.47
2022-10-06T19:25:44.133Z,99905.53
2022-10-06T19:30:35.811Z,99901.38
2022-10-06T19:35:27.557Z,99903.50
2022-10-06T19:40:19.191Z,99888.81
2022-10-06T19:45:12.076Z,99875.66
2022-10-06T19:50:10.312Z,99897.09
2022-10-06T19:55:03.918Z,99879.91
2022-10-06T19:59:55.631Z,99879.81
2022-10-06T20:04:47.240Z,99864.72
2022-10-06T20:09:39.045Z,99866.41
2022-10-06T20:14:30.744Z,99869.72
2022-10-06T20:19:22.538Z,99858.69
2022-10-06T20:24:24.853Z,99870.09
2022-10-06T20:29:22.861Z,99867.59
2022-10-06T20:34:16.047Z,99852.53
2022-10-06T20:39:30.469Z,99849.69
2022-10-06T20:44:22.652Z,99861.66
2022-10-06T20:49:18.155Z,99841.13
2022-10-06T20:54:11.325Z,99833.66
2022-10-06T20:59:03.751Z,99830.34
2022-10-06T21:03:55.435Z,99832.00
2022-10-06T21:08:47.959Z,99826.09
2022-10-06T21:13:40.845Z,99831.88
2022-10-06T21:18:33.001Z,99832.47
2022-10-06T21:23:24.641Z,99829.16
2022-10-06T21:28:16.442Z,99802.94
2022-10-06T21:33:08.299Z,99798.81
2022-10-06T21:37:59.997Z,99798.22
2022-10-06T21:42:51.674Z,99798.09
2022-10-06T21:47:43.490Z,99790.16
2022-10-06T21:52:35.246Z,99778.44
2022-10-06T21:57:26.929Z,99774.03
2022-10-06T22:02:18.623Z,99763.59
2022-10-06T22:07:10.373Z,99788.16
2022-10-06T22:12:02.196Z,99777.94
2022-10-06T22:16:53.873Z,99776.28
2022-10-06T22:21:48.024Z,99768.81
2022-10-06T22:26:41.458Z,99762.78
2022-10-06T22:31:33.527Z,99763.50
2022-10-06T22:36:26.626Z,99761.81
2022-10-06T22:41:18.550Z,99747.03
2022-10-06T22:46:11.713Z,99748.31
2022-10-06T22:51:04.443Z,99742.75
2022-10-06T22:55:56.041Z,99739.66
2022-10-06T23:00:47.712Z,99741.22
2022-10-06T23:05:40.035Z,99736.25
2022-10-06T23:10:33.512Z,99720.00
2022-10-06T23:15:26.429Z,99713.34
2022-10-06T23:20:20.365Z,99708.94
2022-10-06T23:25:12.168Z,99712.38
2022-10-06T23:30:05.891Z,99703.63
2022-10-06T23:34:57.554Z,99705.16
2022-10-06T23:39:49.224Z,99702.56
2022-10-06T23:44:40.956Z,99693.75
2022-10-06T23:49:35.328Z,99694.84
2022-10-06T23:54:27.420Z,99686.69
2022-10-06T23:59:22.933Z,99680.16
